createdAt,value
2017-11-09T00:00:57.006Z,6.10
2017-11-09T00:03:26.015Z,6.10
2017-11-09T00:06:28.889Z,6.10
2017-11-09T00:08:57.839Z,6.10
2017-11-09T00:11:26.804Z,6.00
2017-11-09T00:13:55.744Z,6.10
2017-11-09T00:17:43.995Z,6.00
2017-11-09T00:20:12.945Z,6.00
2017-11-09T00:22:41.876Z,6.10
2017-11-09T00:25:10.765Z,6.10
2017-11-09T00:27:39.992Z,6.10
2017-11-09T00:30:09.631Z,6.10
2017-11-09T00:32:38.544Z,6.10
2017-11-09T00:35:07.509Z,6.10
2017-11-09T00:37:36.424Z,6.10
2017-11-09T00:40:06.098Z,6.20
2017-11-09T00:42:35.948Z,6.20
2017-11-09T00:45:05.672Z,6.20
2017-11-09T00:47:34.702Z,6.10
2017-11-09T00:50:34.216Z,6.20
2017-11-09T00:53:04.052Z,6.30
2017-11-09T00:55:34.136Z,6.20
2017-11-09T00:58:03.742Z,6.20
2017-11-09T01:00:32.815Z,6.20
2017-11-09T01:03:08.896Z,6.20
2017-11-09T01:05:37.913Z,6.20
2017-11-09T01:08:07.639Z,6.20
2017-11-09T01:10:36.943Z,6.20
2017-11-09T01:13:06.234Z,6.20
2017-11-09T01:15:35.137Z,6.20
2017-11-09T01:18:03.998Z,6.30
2017-11-09T01:20:33.623Z,6.30
2017-11-09T01:23:02.492Z,6.30
2017-11-09T01:25:32.279Z,6.20
2017-11-09T01:28:01.391Z,6.20
2017-11-09T01:30:30.935Z,6.20
2017-11-09T01:32:59.877Z,6.20
2017-11-09T01:35:28.771Z,6.10
2017-11-09T01:37:57.704Z,6.10
2017-11-09T01:40:26.649Z,6.20
2017-11-09T01:42:55.559Z,6.20
2017-11-09T01:45:55.633Z,6.20
2017-11-09T01:48:24.507Z,6.10
2017-11-09T01:50:53.380Z,6.20
2017-11-09T01:53:22.289Z,6.20
2017-11-09T01:55:51.176Z,6.20
2017-11-09T01:58:20.120Z,6.20
2017-11-09T02:00:49.178Z,6.20
2017-11-09T02:03:18.151Z,6.20
2017-11-09T02:05:47.304Z,6.20
2017-11-09T02:08:16.436Z,6.20
2017-11-09T02:10:45.667Z,6.20
2017-11-09T02:13:14.646Z,6.20
2017-11-09T02:15:43.546Z,6.20
2017-11-09T02:18:13.168Z,6.20
2017-11-09T02:20:46.898Z,6.20
2017-11-09T02:23:16.702Z,6.20
2017-11-09T02:25:45.663Z,6.20
2017-11-09T02:28:14.640Z,6.30
2017-11-09T02:30:43.642Z,6.20
2017-11-09T02:33:12.627Z,6.20
2017-11-09T02:35:41.512Z,6.20
2017-11-09T02:38:10.454Z,6.20
2017-11-09T02:40:39.413Z,6.30
2017-11-09T02:43:08.344Z,6.30
2017-11-09T02:45:38.477Z,6.30
2017-11-09T02:48:08.172Z,6.30
2017-11-09T02:50:37.104Z,6.20
2017-11-09T02:53:06.388Z,6.20
2017-11-09T02:55:35.559Z,6.20
2017-11-09T02:58:05.596Z,6.20
2017-11-09T03:00:34.601Z,6.20
2017-11-09T03:03:03.809Z,6.20
2017-11-09T03:05:32.708Z,6.20
2017-11-09T03:08:01.596Z,6.20
2017-11-09T03:10:30.464Z,6.20
2017-11-09T03:12:59.453Z,6.20
2017-11-09T03:15:28.542Z,6.10
2017-11-09T03:17:57.959Z,6.20
2017-11-09T03:20:27.439Z,6.20
2017-11-09T03:22:56.672Z,6.20
2017-11-09T03:25:26.040Z,6.20
2017-11-09T03:27:56.766Z,6.20
2017-11-09T03:30:29.482Z,6.10
2017-11-09T03:32:58.463Z,6.20
2017-11-09T03:35:27.635Z,6.10
2017-11-09T03:37:57.396Z,6.20
2017-11-09T03:40:26.311Z,6.10
2017-11-09T03:42:55.176Z,6.10
2017-11-09T03:45:24.113Z,6.20
2017-11-09T03:47:53.384Z,6.20
2017-11-09T03:50:22.288Z,6.20
2017-11-09T03:52:51.127Z,6.20
2017-11-09T03:55:20.036Z,6.20
2017-11-09T03:57:48.920Z,6.20
2017-11-09T04:00:17.813Z,6.20
2017-11-09T04:02:46.711Z,6.20
2017-11-09T04:05:15.619Z,6.20
2017-11-09T04:07:44.637Z,6.20
2017-11-09T04:10:13.497Z,6.20
2017-11-09T04:12:42.473Z,6.20
2017-11-09T04:15:11.720Z,6.20
2017-11-09T04:17:43.916Z,6.20
2017-11-09T04:20:13.198Z,6.20
2017-11-09T04:22:42.876Z,6.10
2017-11-09T04:25:11.958Z,6.10
2017-11-09T04:27:41.085Z,6.10
2017-11-09T04:30:09.963Z,6.10
2017-11-09T04:32:38.871Z,6.20
2017-11-09T04:35:07.790Z,6.10
2017-11-09T04:37:36.882Z,6.20
2017-11-09T04:40:05.816Z,6.20
2017-11-09T04:42:35.037Z,6.20
2017-11-09T04:45:04.028Z,6.20
2017-11-09T04:47:32.933Z,6.10
2017-11-09T04:50:02.991Z,6.20
2017-11-09T04:52:31.905Z,6.10
2017-11-09T04:55:00.804Z,6.20
2017-11-09T04:57:29.862Z,6.20
2017-11-09T04:59:59.618Z,6.20
2017-11-09T06:22:17.987Z,6.20
2017-11-09T06:24:46.958Z,6.10
2017-11-09T06:27:16.676Z,6.20
2017-11-09T06:29:48.043Z,6.10
2017-11-09T06:32:16.980Z,6.20
2017-11-09T06:34:45.881Z,6.10
2017-11-09T06:37:14.843Z,6.20
2017-11-09T06:39:43.784Z,6.20
2017-11-09T06:42:12.686Z,6.20
2017-11-09T06:44:41.828Z,6.20
2017-11-09T06:47:10.858Z,6.20
2017-11-09T06:49:39.827Z,6.20
2017-11-09T06:52:10.828Z,6.20
2017-11-09T06:54:39.896Z,6.30
2017-11-09T06:57:08.867Z,6.30
2017-11-09T06:59:38.581Z,6.20
2017-11-09T07:02:08.424Z,6.20
2017-11-09T07:04:38.557Z,6.30
2017-11-09T07:09:42.239Z,6.30
2017-11-09T07:12:11.245Z,6.30
2017-11-09T07:14:40.313Z,6.30
2017-11-09T07:17:10.424Z,6.40
2017-11-09T07:19:39.408Z,6.40
2017-11-09T07:22:08.390Z,6.40
2017-11-09T07:24:37.477Z,6.40
2017-11-09T07:27:07.219Z,6.30
2017-11-09T07:29:36.108Z,6.30
2017-11-09T07:32:05.129Z,6.30
2017-11-09T07:34:34.085Z,6.30
2017-11-09T07:37:03.825Z,6.40
2017-11-09T07:39:32.782Z,6.30
2017-11-09T07:42:02.460Z,6.40
2017-11-09T07:44:32.469Z,6.40
2017-11-09T07:47:01.388Z,6.40
2017-11-09T07:49:31.118Z,6.40
2017-11-09T07:52:00.058Z,6.40
2017-11-09T07:54:29.034Z,6.50
2017-11-09T07:56:58.050Z,6.40
2017-11-09T07:59:26.973Z,6.50
2017-11-09T08:01:55.955Z,6.50
2017-11-09T08:04:25.689Z,6.60
2017-11-09T08:06:54.623Z,6.50
2017-11-09T08:09:23.551Z,6.60
2017-11-09T08:11:53.278Z,6.90
2017-11-09T08:14:22.191Z,6.80
2017-11-09T08:16:51.137Z,6.90
2017-11-09T08:19:20.845Z,7.10
2017-11-09T08:21:50.587Z,7.00
2017-11-09T08:24:27.558Z,6.90
2017-11-09T08:27:05.659Z,6.90
2017-11-09T08:29:46.103Z,8.70
2017-11-09T08:32:30.171Z,9.40
2017-11-09T08:35:00.289Z,9.30
2017-11-09T08:37:30.114Z,10.00
2017-11-09T08:39:59.107Z,9.90
2017-11-09T08:42:28.128Z,10.10
2017-11-09T08:44:57.085Z,10.40
2017-11-09T08:47:26.004Z,10.20
2017-11-09T08:49:55.924Z,10.30
2017-11-09T08:52:24.885Z,10.20
2017-11-09T08:54:53.954Z,10.80
2017-11-09T08:57:23.704Z,10.60
2017-11-09T08:59:52.715Z,10.50
2017-11-09T09:02:21.675Z,10.30
2017-11-09T09:04:50.726Z,10.00
2017-11-09T09:07:21.560Z,9.80
2017-11-09T09:09:50.565Z,9.50
2017-11-09T09:12:26.315Z,9.10
2017-11-09T09:14:56.122Z,9.00
2017-11-09T09:17:25.122Z,9.00
2017-11-09T09:19:54.155Z,9.10
2017-11-09T09:22:26.592Z,9.00
2017-11-09T09:24:55.677Z,9.00
2017-11-09T09:27:25.851Z,8.70
2017-11-09T09:29:54.972Z,8.70
2017-11-09T09:32:24.073Z,8.70
2017-11-09T09:34:56.672Z,8.50
2017-11-09T09:37:30.927Z,8.40
2017-11-09T09:40:06.035Z,8.40
2017-11-09T09:42:35.900Z,8.30
2017-11-09T09:45:05.086Z,8.20
2017-11-09T09:47:34.124Z,8.20
2017-11-09T09:50:03.983Z,8.10
2017-11-09T09:52:32.921Z,8.00
2017-11-09T09:55:01.971Z,7.90
2017-11-09T09:57:31.024Z,7.80
2017-11-09T10:00:00.911Z,7.70
2017-11-09T10:02:29.959Z,7.60
2017-11-09T10:04:58.990Z,7.60
2017-11-09T10:07:28.021Z,7.60
2017-11-09T10:09:57.834Z,7.60
2017-11-09T10:12:27.612Z,7.50
2017-11-09T10:14:57.337Z,7.50
2017-11-09T10:17:26.267Z,7.50
2017-11-09T10:19:55.625Z,7.50
2017-11-09T10:22:30.634Z,7.60
2017-11-09T10:25:14.033Z,7.60
2017-11-09T10:27:43.270Z,7.50
2017-11-09T10:30:13.078Z,7.50
2017-11-09T10:32:42.110Z,7.60
2017-11-09T10:37:50.133Z,7.70
2017-11-09T10:40:19.959Z,7.80
2017-11-09T10:42:49.672Z,8.00
2017-11-09T10:45:19.557Z,8.10
2017-11-09T10:47:58.612Z,8.20
2017-11-09T10:50:27.790Z,8.20
2017-11-09T10:52:57.543Z,8.20
2017-11-09T10:57:52.856Z,8.20
2017-11-09T11:00:26.068Z,8.30
2017-11-09T11:02:55.044Z,8.30
2017-11-09T11:05:24.297Z,8.30
2017-11-09T11:07:53.235Z,8.30
2017-11-09T11:10:22.172Z,8.20
2017-11-09T11:12:51.872Z,8.10
2017-11-09T11:15:20.989Z,8.10
2017-11-09T11:17:50.118Z,8.10
2017-11-09T11:20:19.963Z,8.10
2017-11-09T11:22:49.046Z,8.10
2017-11-09T11:25:18.137Z,8.10
2017-11-09T11:27:47.125Z,8.10
2017-11-09T11:30:16.891Z,8.00
2017-11-09T11:32:46.077Z,8.00
2017-11-09T11:35:15.014Z,8.10
2017-11-09T11:37:44.684Z,8.00
2017-11-09T11:40:13.692Z,8.00
2017-11-09T11:42:42.717Z,8.00
2017-11-09T11:45:17.702Z,8.00
2017-11-09T11:47:47.504Z,8.10
2017-11-09T11:50:16.487Z,8.00
2017-11-09T11:52:45.713Z,8.00
2017-11-09T11:55:14.699Z,8.00
2017-11-09T11:57:43.734Z,8.00
2017-11-09T12:00:13.528Z,8.00
2017-11-09T12:02:43.344Z,8.00
2017-11-09T12:05:23.961Z,7.90
2017-11-09T12:07:53.181Z,7.90
2017-11-09T12:10:23.142Z,8.00
2017-11-09T12:12:53.019Z,8.10
2017-11-09T12:15:22.037Z,8.00
2017-11-09T12:17:52.041Z,8.00
2017-11-09T12:20:36.618Z,8.00
2017-11-09T12:23:12.425Z,8.00
2017-11-09T12:25:41.495Z,8.00
2017-11-09T12:28:11.474Z,8.00
2017-11-09T12:30:41.630Z,7.90
2017-11-09T12:33:10.997Z,8.00
2017-11-09T12:35:42.874Z,8.00
2017-11-09T12:38:12.025Z,7.90
2017-11-09T12:40:43.880Z,8.00
2017-11-09T12:43:13.781Z,7.90
2017-11-09T12:45:43.603Z,7.90
2017-11-09T12:48:12.669Z,7.80
2017-11-09T12:50:41.624Z,7.90
2017-11-09T12:53:11.581Z,7.80
2017-11-09T12:55:41.409Z,7.70
2017-11-09T12:58:10.409Z,7.60
2017-11-09T13:00:39.396Z,7.60
2017-11-09T13:03:08.431Z,7.70
2017-11-09T13:05:38.398Z,7.80
2017-11-09T13:08:08.157Z,7.80
2017-11-09T13:10:37.148Z,7.70
2017-11-09T13:13:06.972Z,7.80
2017-11-09T13:15:36.961Z,7.70
2017-11-09T13:18:13.586Z,7.80
2017-11-09T13:20:43.401Z,7.80
2017-11-09T13:23:12.376Z,7.70
2017-11-09T13:25:41.393Z,7.70
2017-11-09T13:28:11.237Z,7.80
2017-11-09T13:30:40.196Z,7.70
2017-11-09T13:33:10.304Z,7.80
2017-11-09T13:35:39.332Z,7.70
2017-11-09T13:38:08.309Z,7.70
2017-11-09T13:40:37.303Z,7.70
2017-11-09T13:43:11.142Z,7.70
2017-11-09T13:45:41.751Z,7.60
2017-11-09T13:48:11.498Z,7.80
2017-11-09T13:50:41.547Z,7.70
2017-11-09T13:53:10.575Z,7.70
2017-11-09T13:55:39.588Z,7.60
2017-11-09T13:58:08.653Z,7.60
2017-11-09T14:03:24.433Z,7.60
2017-11-09T14:05:53.361Z,7.60
2017-11-09T14:08:23.109Z,7.60
2017-11-09T14:10:52.277Z,7.50
2017-11-09T14:13:22.457Z,7.50
2017-11-09T14:15:51.823Z,7.50
2017-11-09T14:18:20.906Z,7.50
2017-11-09T14:20:50.019Z,7.50
2017-11-09T14:23:19.120Z,7.50
2017-11-09T14:25:48.320Z,7.50
2017-11-09T14:28:18.135Z,7.50
2017-11-09T14:30:47.196Z,7.40
2017-11-09T14:33:21.731Z,7.50
2017-11-09T14:35:50.775Z,7.50
2017-11-09T14:38:21.298Z,7.50
2017-11-09T14:40:50.270Z,7.40
2017-11-09T14:43:19.252Z,7.50
2017-11-09T14:45:49.309Z,7.50
2017-11-09T14:48:19.339Z,7.60
2017-11-09T14:50:49.351Z,7.60
2017-11-09T14:53:18.358Z,7.50
2017-11-09T14:55:47.436Z,7.60
2017-11-09T14:58:16.660Z,7.60
2017-11-09T15:00:46.473Z,7.50
2017-11-09T15:03:16.205Z,7.50
2017-11-09T15:05:45.928Z,7.50
2017-11-09T15:08:15.705Z,7.50
2017-11-09T15:10:44.716Z,7.40
2017-11-09T15:13:14.499Z,7.40
2017-11-09T15:15:44.295Z,7.40
2017-11-09T15:21:13.354Z,7.40
2017-11-09T15:23:43.175Z,7.50
2017-11-09T15:26:13.342Z,7.50
2017-11-09T15:28:42.484Z,7.40
2017-11-09T15:31:12.474Z,7.40
2017-11-09T15:33:41.653Z,7.40
2017-11-09T15:36:10.749Z,7.40
2017-11-09T15:38:39.866Z,7.40
2017-11-09T15:41:15.306Z,7.20
2017-11-09T15:43:45.127Z,7.30
2017-11-09T15:46:14.190Z,7.30
2017-11-09T15:48:49.953Z,7.30
2017-11-09T15:51:19.865Z,7.40
2017-11-09T15:53:49.822Z,7.30
2017-11-09T15:56:21.765Z,7.20
2017-11-09T15:58:51.768Z,7.30
2017-11-09T16:01:20.838Z,7.20
2017-11-09T16:06:26.287Z,7.30
2017-11-09T16:08:56.157Z,7.10
2017-11-09T16:11:25.928Z,7.20
2017-11-09T16:13:54.980Z,7.10
2017-11-09T16:16:24.886Z,7.10
2017-11-09T16:18:54.951Z,7.00
2017-11-09T16:21:24.248Z,7.00
2017-11-09T16:23:54.215Z,7.10
2017-11-09T16:26:42.188Z,7.00
2017-11-09T16:29:12.309Z,7.00
2017-11-09T16:31:42.558Z,6.90
2017-11-09T16:34:11.689Z,6.90
2017-11-09T16:36:40.854Z,7.00
2017-11-09T16:39:09.944Z,7.00
2017-11-09T16:41:39.130Z,6.90
2017-11-09T16:44:08.430Z,6.90
2017-11-09T16:46:37.452Z,6.90
2017-11-09T16:49:06.681Z,6.80
2017-11-09T16:51:36.474Z,6.60
2017-11-09T16:54:05.635Z,6.60
2017-11-09T16:56:38.544Z,6.60
2017-11-09T16:59:07.719Z,6.60
2017-11-09T17:01:37.692Z,6.70
2017-11-09T17:04:07.641Z,6.70
2017-11-09T17:06:36.684Z,6.60
2017-11-09T17:09:06.554Z,6.60
2017-11-09T17:11:49.929Z,6.60
2017-11-09T17:14:23.592Z,6.60
2017-11-09T17:16:58.286Z,6.60
2017-11-09T17:19:27.353Z,6.60
2017-11-09T17:22:02.583Z,6.70
2017-11-09T17:24:33.444Z,6.60
2017-11-09T17:27:03.309Z,6.50
2017-11-09T17:29:32.424Z,6.50
2017-11-09T17:32:05.917Z,6.50
2017-11-09T17:34:34.996Z,6.40
2017-11-09T17:37:04.550Z,6.40
2017-11-09T17:39:34.311Z,6.40
2017-11-09T17:42:07.557Z,6.40
2017-11-09T17:44:37.544Z,6.30
2017-11-09T17:47:07.421Z,6.30
2017-11-09T17:49:36.363Z,6.20
2017-11-09T17:52:09.092Z,6.20
2017-11-09T17:54:38.883Z,6.10
2017-11-09T17:57:15.990Z,6.10
2017-11-09T18:05:33.558Z,6.10
2017-11-09T18:08:05.913Z,6.10
2017-11-09T18:10:34.885Z,6.20
2017-11-09T18:13:03.913Z,6.20
2017-11-09T18:15:33.681Z,6.30
2017-11-09T18:18:10.142Z,6.30
2017-11-09T18:21:10.382Z,6.30
2017-11-09T18:23:40.268Z,6.30
2017-11-09T18:26:09.343Z,6.30
2017-11-09T18:28:38.340Z,6.30
2017-11-09T18:31:07.386Z,6.30
2017-11-09T18:33:37.170Z,6.30
2017-11-09T18:36:06.942Z,6.30
2017-11-09T18:38:35.944Z,6.20
2017-11-09T18:41:04.938Z,6.30
2017-11-09T18:43:34.706Z,6.20
2017-11-09T18:46:03.750Z,6.10
2017-11-09T18:48:32.835Z,6.20
2017-11-09T18:51:02.584Z,6.20
2017-11-09T18:53:32.409Z,6.20
2017-11-09T18:56:01.591Z,6.20
2017-11-09T18:58:34.474Z,6.20
2017-11-09T19:01:09.054Z,6.20
2017-11-09T19:03:38.078Z,6.10
2017-11-09T19:06:07.117Z,6.20
2017-11-09T19:08:36.154Z,6.20
2017-11-09T19:11:05.181Z,6.20
2017-11-09T19:13:34.192Z,6.20
2017-11-09T19:16:03.206Z,6.20
2017-11-09T19:18:32.332Z,6.30
2017-11-09T19:21:02.257Z,6.30
2017-11-09T19:23:32.122Z,6.30
2017-11-09T19:26:01.087Z,6.20
2017-11-09T19:28:31.487Z,6.30
2017-11-09T19:31:01.453Z,6.30
2017-11-09T19:33:31.008Z,6.20
2017-11-09T19:36:00.740Z,6.30
2017-11-09T19:38:30.583Z,6.40
2017-11-09T19:41:00.598Z,6.40
2017-11-09T19:43:30.480Z,6.40
2017-11-09T19:46:00.320Z,6.40
2017-11-09T19:48:29.314Z,6.30
2017-11-09T19:50:58.296Z,6.40
2017-11-09T19:53:27.275Z,6.30
2017-11-09T19:55:57.015Z,6.20
2017-11-09T19:58:29.732Z,6.10
2017-11-09T20:01:00.870Z,6.10
2017-11-09T20:03:30.583Z,6.00
2017-11-09T20:05:59.716Z,6.00
2017-11-09T20:08:29.530Z,6.00
2017-11-09T20:10:58.500Z,5.90
2017-11-09T20:13:27.515Z,5.90
2017-11-09T20:15:56.469Z,6.00
2017-11-09T20:18:25.454Z,6.00
2017-11-09T20:20:54.591Z,6.00
2017-11-09T20:23:24.348Z,6.00
2017-11-09T20:25:53.356Z,6.00
2017-11-09T20:28:23.123Z,6.00
2017-11-09T20:30:52.130Z,6.00
2017-11-09T20:33:26.724Z,6.00
2017-11-09T20:35:56.507Z,5.90
2017-11-09T20:38:25.503Z,5.90
2017-11-09T20:40:55.417Z,5.90
2017-11-09T20:43:30.147Z,5.90
2017-11-09T20:45:59.324Z,5.90
2017-11-09T20:48:28.416Z,5.80
2017-11-09T20:50:57.479Z,5.70
2017-11-09T20:53:26.511Z,5.70
2017-11-09T20:55:55.531Z,5.70
2017-11-09T20:58:25.297Z,5.60
2017-11-09T21:00:54.473Z,5.60
2017-11-09T21:03:23.468Z,5.70
2017-11-09T21:05:53.307Z,5.60
2017-11-09T21:08:23.084Z,5.50
2017-11-09T21:10:58.610Z,5.50
2017-11-09T21:13:27.602Z,5.50
2017-11-09T21:15:57.325Z,5.50
2017-11-09T21:18:26.992Z,5.50
2017-11-09T21:20:55.973Z,5.50
2017-11-09T21:23:24.982Z,5.50
2017-11-09T21:25:54.798Z,5.50
2017-11-09T21:28:24.472Z,5.60
2017-11-09T21:30:53.474Z,5.50
2017-11-09T21:33:22.476Z,5.60
2017-11-09T21:35:51.376Z,5.50
2017-11-09T21:38:21.398Z,5.60
2017-11-09T21:40:50.375Z,5.50
2017-11-09T21:43:19.294Z,5.60
2017-11-09T21:45:48.976Z,5.60
2017-11-09T21:48:18.753Z,5.60
2017-11-09T21:50:47.700Z,5.50
2017-11-09T21:53:16.976Z,5.50
2017-11-09T21:55:46.685Z,5.60
2017-11-09T21:58:15.680Z,5.50
2017-11-09T22:03:38.341Z,5.50
2017-11-09T22:06:07.386Z,5.50
2017-11-09T22:08:36.332Z,5.60
2017-11-09T22:11:06.176Z,5.60
2017-11-09T22:13:35.938Z,5.70
2017-11-09T22:16:05.048Z,5.60
2017-11-09T22:18:36.502Z,5.70
2017-11-09T22:21:10.125Z,5.70
2017-11-09T22:23:39.166Z,5.70
2017-11-09T22:26:08.111Z,5.70
2017-11-09T22:28:37.073Z,5.80
2017-11-09T22:31:06.010Z,5.80
2017-11-09T22:33:35.875Z,5.80
2017-11-09T22:36:04.865Z,5.70
2017-11-09T22:38:33.859Z,5.80
2017-11-09T22:41:02.920Z,5.80
2017-11-09T22:43:32.635Z,5.80
2017-11-09T22:46:01.735Z,5.80
2017-11-09T22:48:30.764Z,5.80
2017-11-09T22:50:59.735Z,5.80
2017-11-09T22:53:31.281Z,5.80
2017-11-09T22:56:00.369Z,5.80
2017-11-09T22:58:29.393Z,5.80
2017-11-09T23:00:58.425Z,5.80
2017-11-09T23:03:28.214Z,5.80
2017-11-09T23:05:57.238Z,5.70
2017-11-09T23:08:27.000Z,5.80
2017-11-09T23:10:56.210Z,5.70
2017-11-09T23:13:25.286Z,5.80
2017-11-09T23:15:54.300Z,5.80
2017-11-09T23:18:23.650Z,5.80
2017-11-09T23:20:52.862Z,5.80
2017-11-09T23:23:21.987Z,5.80
2017-11-09T23:25:51.094Z,5.80
2017-11-09T23:28:20.165Z,5.80
2017-11-09T23:30:50.134Z,5.80
2017-11-09T23:33:23.898Z,5.70
2017-11-09T23:35:53.725Z,5.70
2017-11-09T23:38:22.742Z,5.80
2017-11-09T23:41:08.523Z,5.90
2017-11-09T23:43:38.983Z,5.80
2017-11-09T23:46:10.012Z,5.90
2017-11-09T23:48:38.993Z,5.90
2017-11-09T23:51:08.924Z,5.90
2017-11-09T23:53:37.984Z,5.80
2017-11-09T23:56:06.993Z,5.90
2017-11-09T23:58:36.036Z,5.90
